Nearby METAR Reports

 

KSWO - Stillwater, Oklahoma, USA
Distance from station: S 17mi, 28km
Updated: Wed, 24-Apr-2024 12:53pm CDT
Light rain, Mostly cloudy
Light rain, Mostly cloudy
 Wind from calm
Wind: Calm
Temperature: 66°F , 19°C
Dew Point: 46°F , 8°C
Humidity: 49%
Barometer: 30.21 inHg , 1023 hPa
Summary: Light rain
Clouds: Mostly cloudy
Visibility: 10 miles , 16 km
Cloud details: Few Clouds 2600 ft
Partly cloudy 4800 ft
Mostly cloudy 7000 ft
2024/04/24 17:53 KSWO 241753Z 00000KT 10SM -RA FEW026 SCT048 BKN070 19/08 A3021 RMK AO2 LTG DSNT S RAB39 PRESRR SLP222 P0001 60002 T01940078 10194 20128 53010
KCFV - Coffeyville, Kansas, USA
Distance from station: ENE 93mi, 150km
Updated: Wed, 24-Apr-2024 1:52pm CDT
Clear
Clear
 Wind from calm
Wind: Calm
Temperature: 72°F , 22°C
Dew Point: 37°F , 3°C
Humidity: 29%
Barometer: 30.19 inHg , 1022.4 hPa
Clouds: Clear
Visibility: 10 miles , 16 km
2024/04/24 18:52 KCFV 241852Z AUTO 00000KT 10SM CLR 22/03 A3019 RMK AO2 SLP221 T02170028
 
KIDP - Independence, Kansas, USA
Distance from station: NE 86mi, 138km
Updated: Wed, 24-Apr-2024 1:35pm CDT
Clear
Clear
 Wind from E
Wind: E 3 mph , 6 km/h
Temperature: 70°F , 21°C
Dew Point: 36°F , 2°C
Humidity: 29%
Barometer: 30.21 inHg , 1023 hPa
Clouds: Clear
Visibility: 10 miles , 16 km
2024/04/24 18:35 KIDP 241835Z AUTO 10003KT 10SM CLR 21/02 A3021 RMK AO2 T02100023
KIAB - Mcconnell Afb, Kansas, USA
Distance from station: N 84mi, 135km
Updated: Wed, 24-Apr-2024 12:55pm CDT
Mostly cloudy
Mostly cloudy
 Wind from E
Wind: E 5 mph , 7 km/h
Temperature: 70°F , 21°C
Dew Point: 36°F , 2°C
Humidity: 29%
Barometer: 30.18 inHg , 1022 hPa
Clouds: Mostly cloudy
Visibility: 10 miles , 16 km
Cloud details: Few Clouds 7000 ft
Mostly cloudy 10000 ft
Mostly cloudy 13000 ft
Mostly cloudy 20000 ft
2024/04/24 17:55 KIAB 241755Z AUTO 10004KT 10SM FEW070 BKN100 BKN130 BKN200 21/02 A3018 RMK AO2 SLP218 60000 T02090017 10212 20127 50006 $
 
KICT - Wichita, Kansas, USA
Distance from station: NNW 88mi, 142km
Updated: Wed, 24-Apr-2024 1:53pm CDT
Partly cloudy
Partly cloudy
 Wind from SE
Wind: SE 12 mph , 19 km/h, Gust: 18 mph , 30 km/h
Temperature: 72°F , 22°C
Dew Point: 39°F , 4°C
Humidity: 31%
Barometer: 30.14 inHg , 1020.7 hPa
Clouds: Partly cloudy
Visibility: 10 miles , 16 km
Cloud details: Partly cloudy 12000 ft
Partly cloudy 18000 ft
2024/04/24 18:53 KICT 241853Z 13010G16KT 10SM SCT120 SCT180 22/04 A3014 RMK AO2 SLP200 T02220039
KAAO - Wichita/Jabara, Kansas, USA
Distance from station: N 93mi, 149km
Updated: Wed, 24-Apr-2024 12:54pm CDT
Overcast
Overcast
 Wind from ESE
Wind: ESE 10 mph , 17 km/h
Temperature: 70°F , 21°C
Dew Point: 37°F , 3°C
Humidity: 31%
Barometer: 30.20 inHg , 1022.7 hPa
Clouds: Overcast
Visibility: 10 miles , 16 km
Cloud details: Overcast 11000 ft
2024/04/24 17:54 KAAO 241754Z AUTO 11009KT 10SM OVC110 21/03 A3020 RMK AO2 SLP221 60000 T02110028 10211 20106 50005
 
KWLD - Winfield/Arkansa, Kansas, USA
Distance from station: N 52mi, 84km
Updated: Wed, 24-Apr-2024 1:54pm CDT
Clear
Clear
 Wind from E
Wind: E 9 mph , 15 km/h, Gust: 20 mph , 31 km/h
Temperature: 72°F , 22°C
Dew Point: 41°F , 5°C
Humidity: 33%
Barometer: 30.15 inHg , 1021 hPa
Clouds: Clear
Visibility: 10 miles , 16 km
2024/04/24 18:54 KWLD 241854Z AUTO 10008G17KT 10SM CLR 22/05 A3015 RMK AO2 SLP204 T02220050
KAVK - Alva, Oklahoma, USA
Distance from station: WNW 94mi, 152km
Updated: Wed, 24-Apr-2024 1:35pm CDT
Mostly cloudy
Mostly cloudy
 Wind from ESE
Wind: ESE 15 mph , 24 km/h
Temperature: 68°F , 20°C
Dew Point: 39°F , 4°C
Humidity: 35%
Barometer: 30.15 inHg , 1021 hPa
Clouds: Mostly cloudy
Visibility: 10 miles , 16 km
Cloud details: Mostly cloudy 9000 ft
Mostly cloudy 11000 ft
2024/04/24 18:35 KAVK 241835Z AUTO 11013KT 10SM BKN090 BKN110 20/04 A3015 RMK AO2
 
KBVO - Bartlesville, Oklahoma, USA
Distance from station: ENE 61mi, 98km
Updated: Wed, 24-Apr-2024 1:53pm CDT
Clear
Clear
 Wind from calm
Wind: Calm
Temperature: 72°F , 22°C
Dew Point: 39°F , 4°C
Humidity: 31%
Barometer: 30.19 inHg , 1022.4 hPa
Clouds: Clear
Visibility: 10 miles , 16 km
2024/04/24 18:53 KBVO 241853Z AUTO 00000KT 10SM CLR 22/04 A3019 RMK AO2 SLP218 T02170039
KBKN - Blackwell, Oklahoma, USA
Distance from station: NW 29mi, 47km
Updated: Wed, 24-Apr-2024 1:35pm CDT
Clear
Clear
 Wind from SE
Wind: SE 10 mph , 17 km/h
Temperature: 68°F , 20°C
Dew Point: 45°F , 7°C
Humidity: 43%
Barometer: 30.16 inHg , 1021.3 hPa
Clouds: Clear
2024/04/24 18:35 KBKN 241835Z AUTO 14009KT CLR 20/07 A3016 RMK AO2
 
KGCM - Claremore, Oklahoma, USA
Distance from station: E 86mi, 138km
Updated: Wed, 24-Apr-2024 1:35pm CDT
Clear
Clear
 Wind from varies
Wind: varies 3 mph , 6 km/h
Temperature: 73°F , 23°C
Dew Point: 43°F , 6°C
Humidity: 33%
Barometer: 30.17 inHg , 1021.7 hPa
Clouds: Clear
Visibility: 10 miles , 16 km
2024/04/24 18:35 KGCM 241835Z AUTO VRB03KT 10SM CLR 23/06 A3017 RMK AO2
KCQB - Chandler, Oklahoma, USA
Distance from station: SSE 50mi, 80km
Updated: Wed, 24-Apr-2024 1:35pm CDT
Overcast
Overcast
 Wind from ENE
Wind: ENE 5 mph , 7 km/h
Temperature: 64°F , 18°C
Dew Point: 52°F , 11°C
Humidity: 64%
Barometer: 30.19 inHg , 1022.4 hPa
Clouds: Overcast
Visibility: 10 miles , 16 km
Cloud details: Overcast 11000 ft
2024/04/24 18:35 KCQB 241835Z AUTO 07004KT 10SM OVC110 18/11 A3019 RMK AO2 T01770114
 
KCUH - Cushing, Oklahoma, USA
Distance from station: SSE 35mi, 57km
Updated: Wed, 24-Apr-2024 1:35pm CDT
Mostly cloudy
Mostly cloudy
 Wind from ENE
Wind: ENE 7 mph , 11 km/h
Temperature: 68°F , 20°C
Dew Point: 46°F , 8°C
Humidity: 46%
Barometer: 30.18 inHg , 1022 hPa
Clouds: Mostly cloudy
Visibility: 10 miles , 16 km
Cloud details: Partly cloudy 3000 ft
Partly cloudy 4700 ft
Mostly cloudy 11000 ft
2024/04/24 18:35 KCUH 241835Z AUTO 07006KT 10SM SCT030 SCT047 BKN110 20/08 A3018 RMK AO2 T01990077
KRQO - El Reno Muni, Oklahoma, USA
Distance from station: SW 85mi, 137km
Updated: Wed, 24-Apr-2024 1:35pm CDT
Overcast
Overcast
 Wind from E
Wind: E 15 mph , 24 km/h
Temperature: 72°F , 22°C
Dew Point: 52°F , 11°C
Humidity: 50%
Barometer: 30.15 inHg , 1021 hPa
Clouds: Overcast
Visibility: 10 miles , 16 km
Cloud details: Overcast 9500 ft
2024/04/24 18:35 KRQO 241835Z AUTO 10013KT 10SM OVC095 22/11 A3015 RMK AO2 T02190114
 
KEND - Enid/Vance Afb, Oklahoma, USA
Distance from station: W 50mi, 81km
Updated: Wed, 24-Apr-2024 12:55pm CDT
Partly cloudy
Partly cloudy
 Wind from E
Wind: E 14 mph , 22 km/h
Temperature: 66°F , 19°C
Dew Point: 48°F , 9°C
Humidity: 52%
Barometer: 30.15 inHg , 1021 hPa
Clouds: Partly cloudy
Visibility: 10 miles , 16 km
Cloud details: Few Clouds 10000 ft
Partly cloudy 12000 ft
Partly cloudy 18000 ft
2024/04/24 17:55 KEND 241755Z 09012KT 10SM FEW100 SCT120 SCT180 19/09 A3015 RMK AO2A RAB03E04DZB04E15 PRESFR SLP206 P0000 60006 T01920085 10192 20127 55014 $
KWDG - Enid/Woodring, Oklahoma, USA
Distance from station: W 42mi, 67km
Updated: Wed, 24-Apr-2024 1:50pm CDT
Mostly cloudy
Mostly cloudy
 Wind from ESE
Wind: ESE 16 mph , 26 km/h, Gust: 22 mph , 35 km/h
Temperature: 70°F , 21°C
Dew Point: 41°F , 5°C
Humidity: 35%
Barometer: 30.14 inHg , 1020.7 hPa
Clouds: Mostly cloudy
Visibility: 10 miles , 16 km
Cloud details: Mostly cloudy 12000 ft
2024/04/24 18:50 KWDG 241850Z 12014G19KT 10SM BKN120 21/05 A3014
 
KGOK - Guthrie, Oklahoma, USA
Distance from station: SSW 44mi, 71km
Updated: Wed, 24-Apr-2024 12:53pm CDT
Clear
Clear
 Wind from varies
Wind: varies 7 mph , 11 km/h
Temperature: 66°F , 19°C
Dew Point: 48°F , 9°C
Humidity: 52%
Barometer: 30.17 inHg , 1021.7 hPa
Clouds: Clear
Visibility: 10 miles , 16 km
2024/04/24 17:53 KGOK 241753Z AUTO VRB06KT 10SM CLR 19/09 A3017 RMK AO2 LTG DSNT SE AND S SLP214 60000 T01940094 10200 20139 51010
KOUN - Norman/Westheime, Oklahoma, USA
Distance from station: SSW 84mi, 136km
Updated: Wed, 24-Apr-2024 1:45pm CDT
Overcast
Overcast
 Wind from E
Wind: E 10 mph , 17 km/h
Temperature: 73°F , 23°C
Dew Point: 54°F , 12°C
Humidity: 50%
Barometer: 30.12 inHg , 1020 hPa
Clouds: Overcast
Visibility: 10 miles , 16 km
Cloud details: Overcast 12000 ft
2024/04/24 18:45 KOUN 241845Z 08009KT 10SM OVC120 23/12 A3012
 
KOKC - Oklahoma City, Oklahoma, USA
Distance from station: SSW 78mi, 126km
Updated: Wed, 24-Apr-2024 1:52pm CDT
Mostly cloudy
Mostly cloudy
 Wind from ESE
Wind: ESE 15 mph , 24 km/h, Gust: 26 mph , 43 km/h
Temperature: 73°F , 23°C
Dew Point: 52°F , 11°C
Humidity: 47%
Barometer: 30.12 inHg , 1020 hPa
Clouds: Mostly cloudy
Visibility: 10 miles , 16 km
Cloud details: Mostly cloudy 10000 ft
Mostly cloudy 20000 ft
2024/04/24 18:52 KOKC 241852Z 12013G23KT 10SM BKN100 BKN200 23/11 A3012 RMK AO2 SLP190 T02280111
KPWA - Okla City/Wiley, Oklahoma, USA
Distance from station: SSW 70mi, 113km
Updated: Wed, 24-Apr-2024 12:53pm CDT
Clear
Clear
 Wind from ESE
Wind: ESE 15 mph , 24 km/h, Gust: 24 mph , 39 km/h
Temperature: 70°F , 21°C
Dew Point: 52°F , 11°C
Humidity: 53%
Barometer: 30.15 inHg , 1021 hPa
Clouds: Clear
Visibility: 10 miles , 16 km
2024/04/24 17:53 KPWA 241753Z 12013G21KT 10SM CLR 21/11 A3015 RMK AO2 LTG DSNT E SLP201 60002 T02110111 10211 20150 58008
 
KRCE - Okla City/Page, Oklahoma, USA
Distance from station: SW 78mi, 126km
Updated: Wed, 24-Apr-2024 1:35pm CDT
Overcast
Overcast
 Wind from ESE
Wind: ESE 15 mph , 24 km/h
Temperature: 70°F , 21°C
Dew Point: 54°F , 12°C
Humidity: 57%
Barometer: 30.13 inHg , 1020.3 hPa
Clouds: Overcast
Visibility: 10 miles , 16 km
Cloud details: Overcast 9500 ft
2024/04/24 18:35 KRCE 241835Z AUTO 11013KT 10SM OVC095 21/12 A3013 RMK AO2 TSNO
KOKM - Okmulgee, Oklahoma, USA
Distance from station: SE 79mi, 127km
Updated: Wed, 24-Apr-2024 1:35pm CDT
Light drizzle, Overcast
Light drizzle, Overcast
 Wind from SSE
Wind: SSE 3 mph , 6 km/h
Temperature: 68°F , 20°C
Dew Point: 55°F , 13°C
Humidity: 64%
Barometer: 30.15 inHg , 1021 hPa
Summary: Light Drizzle
Clouds: Overcast
Visibility: 10 miles , 16 km
Cloud details: Partly cloudy 3200 ft
Partly cloudy 5000 ft
Overcast 11000 ft
2024/04/24 18:35 KOKM 241835Z AUTO 16003KT 10SM -DZ SCT032 SCT050 OVC110 20/13 A3015 RMK AO2 T01950132
 
KPNC - Ponca City, Oklahoma, USA
Distance from station: N 22mi, 36km
Updated: Wed, 24-Apr-2024 1:53pm CDT
Clear
Clear
 Wind from SSE
Wind: SSE 10 mph , 17 km/h, Gust: 17 mph , 28 km/h
Temperature: 72°F , 22°C
Dew Point: 43°F , 6°C
Humidity: 36%
Barometer: 30.16 inHg , 1021.3 hPa
Clouds: Clear
Visibility: 10 miles , 16 km
2024/04/24 18:53 KPNC 241853Z AUTO 15009G15KT 10SM CLR 22/06 A3016 RMK AO2 RAB01E16 SLP206 P0000 T02170056
KSNL - Shawnee, Oklahoma, USA
Distance from station: S 74mi, 119km
Updated: Wed, 24-Apr-2024 1:35pm CDT
Overcast
Overcast
 Wind from E
Wind: E 10 mph , 17 km/h, Gust: 20 mph , 31 km/h
Temperature: 75°F , 24°C
Dew Point: 48°F , 9°C
Humidity: 39%
Barometer: 30.15 inHg , 1021 hPa
Clouds: Overcast
Visibility: 10 miles , 16 km
Cloud details: Overcast 11000 ft
2024/04/24 18:35 KSNL 241835Z AUTO 08009G17KT 10SM OVC110 24/09 A3015 RMK AO2 T02400087